createdAt,value
2022-10-14T00:01:06.610Z,13.30
2022-10-14T00:03:33.987Z,13.30
2022-10-14T00:06:03.504Z,13.30
2022-10-14T00:08:30.352Z,13.50
2022-10-14T00:11:03.463Z,13.40
2022-10-14T00:13:32.150Z,13.40
2022-10-14T00:15:59.039Z,13.40
2022-10-14T00:18:28.038Z,13.50
2022-10-14T00:21:01.825Z,13.30
2022-10-14T00:23:30.299Z,13.20
2022-10-14T00:25:57.090Z,13.20
2022-10-14T00:28:30.032Z,13.20
2022-10-14T00:30:58.190Z,13.20
2022-10-14T00:33:25.558Z,13.30
2022-10-14T00:36:03.339Z,13.20
2022-10-14T00:38:34.216Z,13.20
2022-10-14T00:41:01.605Z,13.20
2022-10-14T00:43:28.955Z,13.20
2022-10-14T00:45:55.879Z,13.40
2022-10-14T00:48:24.084Z,13.30
2022-10-14T00:50:54.847Z,13.50
2022-10-14T00:53:22.257Z,13.50
2022-10-14T00:55:50.494Z,13.40
2022-10-14T00:58:17.391Z,13.30
2022-10-14T01:00:44.338Z,13.20
2022-10-14T01:03:18.152Z,13.20
2022-10-14T01:05:49.295Z,13.20
2022-10-14T01:08:28.763Z,13.20
2022-10-14T01:10:59.474Z,13.20
2022-10-14T01:13:38.169Z,13.20
2022-10-14T01:16:14.334Z,13.10
2022-10-14T01:18:56.639Z,13.10
2022-10-14T01:21:42.282Z,13.20
2022-10-14T01:24:35.312Z,13.00
2022-10-14T01:27:24.712Z,12.90
2022-10-14T01:29:54.714Z,12.80
2022-10-14T01:32:21.749Z,12.80
2022-10-14T01:35:11.601Z,12.80
2022-10-14T01:37:43.646Z,12.80
2022-10-14T01:40:14.162Z,12.80
2022-10-14T01:42:42.212Z,12.80
2022-10-14T01:45:12.103Z,12.90
2022-10-14T01:47:39.780Z,12.90
2022-10-14T01:50:11.670Z,12.90
2022-10-14T01:52:41.123Z,12.90
2022-10-14T01:55:10.736Z,12.80
2022-10-14T01:57:39.356Z,12.80
2022-10-14T02:00:07.097Z,12.90
2022-10-14T02:02:40.744Z,12.80
2022-10-14T02:05:17.250Z,12.90
2022-10-14T02:07:46.888Z,12.90
2022-10-14T02:10:38.874Z,12.80
2022-10-14T02:13:08.763Z,12.80
2022-10-14T02:15:45.603Z,13.10
2022-10-14T02:18:18.840Z,12.90
2022-10-14T02:21:00.077Z,13.00
2022-10-14T02:23:30.447Z,12.90
2022-10-14T02:25:57.838Z,12.90
2022-10-14T02:28:26.361Z,12.80
2022-10-14T02:30:57.923Z,12.80
2022-10-14T02:33:28.949Z,12.80
2022-10-14T02:35:59.022Z,12.70
2022-10-14T02:38:26.744Z,12.70
2022-10-14T02:40:53.915Z,12.80
2022-10-14T02:43:20.870Z,12.80
2022-10-14T02:45:48.122Z,12.80
2022-10-14T02:48:15.281Z,12.90
2022-10-14T02:50:42.499Z,13.00
2022-10-14T02:53:12.976Z,13.00
2022-10-14T02:55:39.851Z,13.10
2022-10-14T02:58:06.711Z,13.00
2022-10-14T03:00:33.842Z,12.90
2022-10-14T03:03:01.743Z,12.80
2022-10-14T03:05:29.943Z,12.80
2022-10-14T03:07:56.791Z,12.60
2022-10-14T03:10:26.026Z,12.60
2022-10-14T03:12:53.075Z,12.50
2022-10-14T03:15:28.616Z,12.40
2022-10-14T03:17:55.567Z,12.40
2022-10-14T03:20:29.733Z,12.30
2022-10-14T03:22:58.053Z,12.30
2022-10-14T03:25:24.896Z,12.30
2022-10-14T03:28:12.523Z,12.30
2022-10-14T03:30:53.873Z,12.20
2022-10-14T03:33:38.772Z,12.30
2022-10-14T03:36:12.229Z,12.40
2022-10-14T03:38:47.725Z,12.40
2022-10-14T03:41:33.892Z,12.50
2022-10-14T03:44:00.755Z,12.40
2022-10-14T03:46:27.803Z,12.40
2022-10-14T03:48:56.558Z,12.40
2022-10-14T03:51:24.259Z,12.50
2022-10-14T03:53:55.195Z,12.60
2022-10-14T03:56:27.722Z,12.50
2022-10-14T03:58:54.821Z,12.50
2022-10-14T04:01:23.730Z,12.70
2022-10-14T04:04:05.971Z,12.60
2022-10-14T04:06:34.483Z,12.50
2022-10-14T04:09:04.642Z,12.40
2022-10-14T04:11:36.507Z,12.30
2022-10-14T04:14:07.404Z,12.30
2022-10-14T04:16:40.457Z,12.30
2022-10-14T04:19:11.572Z,12.30
2022-10-14T04:21:40.806Z,12.30
2022-10-14T04:24:09.088Z,12.30
2022-10-14T04:26:41.892Z,12.30
2022-10-14T04:29:15.501Z,12.30
2022-10-14T04:31:52.598Z,12.40
2022-10-14T04:34:20.502Z,12.30
2022-10-14T04:36:47.443Z,12.40
2022-10-14T04:39:28.166Z,12.40
2022-10-14T04:41:55.929Z,12.40
2022-10-14T04:44:23.204Z,12.40
2022-10-14T04:46:53.955Z,12.30
2022-10-14T04:49:23.606Z,12.30
2022-10-14T04:52:00.618Z,12.20
2022-10-14T04:54:38.006Z,12.20
2022-10-14T04:57:05.043Z,12.10
2022-10-14T04:59:31.886Z,12.20
2022-10-14T05:02:25.359Z,12.10
2022-10-14T05:04:59.673Z,12.20
2022-10-14T05:07:28.392Z,12.30
2022-10-14T05:10:04.724Z,12.40
2022-10-14T05:12:40.709Z,12.40
2022-10-14T05:15:07.806Z,12.30
2022-10-14T05:17:44.601Z,12.40
2022-10-14T05:20:14.262Z,12.40
2022-10-14T05:22:44.574Z,12.30
2022-10-14T05:25:12.063Z,12.20
2022-10-14T05:27:39.278Z,12.10
2022-10-14T05:30:06.672Z,12.10
2022-10-14T05:32:38.347Z,12.10
2022-10-14T05:35:06.827Z,12.10
2022-10-14T05:37:38.016Z,12.30
2022-10-14T05:40:05.192Z,12.20
2022-10-14T05:42:35.351Z,12.30
2022-10-14T05:45:02.363Z,12.30
2022-10-14T05:47:30.843Z,12.30
2022-10-14T05:50:03.526Z,12.40
2022-10-14T05:52:34.330Z,12.40
2022-10-14T05:55:08.578Z,12.40
2022-10-14T05:57:36.138Z,12.40
2022-10-14T06:00:04.842Z,12.50
2022-10-14T06:02:33.116Z,12.50
2022-10-14T06:04:59.999Z,12.50
2022-10-14T06:07:28.367Z,12.50
2022-10-14T06:09:55.171Z,12.60
2022-10-14T06:12:22.246Z,12.60
2022-10-14T06:14:49.899Z,12.70
2022-10-14T06:17:17.666Z,12.70
2022-10-14T06:19:45.546Z,12.70
2022-10-14T06:22:12.381Z,12.80
2022-10-14T06:24:39.184Z,12.90
2022-10-14T06:27:06.119Z,13.00
2022-10-14T06:29:37.982Z,13.00
2022-10-14T06:32:05.799Z,13.00
2022-10-14T06:34:32.711Z,13.10
2022-10-14T06:37:02.263Z,13.20
2022-10-14T06:39:29.887Z,13.20
2022-10-14T06:41:56.881Z,13.20
2022-10-14T06:44:23.824Z,13.10
2022-10-14T06:46:50.705Z,13.20
2022-10-14T06:49:17.603Z,13.20
2022-10-14T06:51:44.669Z,13.20
2022-10-14T06:54:11.455Z,13.40
2022-10-14T06:56:38.332Z,13.40
2022-10-14T06:59:06.064Z,13.50
2022-10-14T07:01:32.939Z,13.50
2022-10-14T07:03:59.877Z,13.50
2022-10-14T07:06:26.845Z,13.60
2022-10-14T07:08:53.681Z,13.60
2022-10-14T07:11:20.450Z,13.70
2022-10-14T07:13:47.254Z,13.90
2022-10-14T07:16:14.062Z,13.90
2022-10-14T07:18:41.106Z,13.70
2022-10-14T07:21:08.114Z,13.80
2022-10-14T07:23:34.981Z,13.80
2022-10-14T07:26:01.852Z,13.90
2022-10-14T07:28:28.711Z,13.90
2022-10-14T07:31:02.622Z,13.80
2022-10-14T07:33:29.689Z,13.70
2022-10-14T07:36:00.315Z,13.80
2022-10-14T07:38:27.163Z,14.00
2022-10-14T07:41:01.355Z,14.00
2022-10-14T07:43:28.685Z,14.10
2022-10-14T07:46:01.729Z,14.20
2022-10-14T07:48:33.030Z,14.20
2022-10-14T07:51:12.105Z,14.50
2022-10-14T07:53:39.060Z,14.70
2022-10-14T07:56:06.691Z,14.90
2022-10-14T07:58:33.537Z,15.10
2022-10-14T08:01:00.659Z,15.00
2022-10-14T08:03:27.548Z,15.20
2022-10-14T08:06:04.722Z,15.10
2022-10-14T08:08:31.788Z,15.30
2022-10-14T08:11:07.032Z,15.60
2022-10-14T08:13:34.435Z,15.60
2022-10-14T08:16:01.634Z,15.60
2022-10-14T08:18:28.689Z,15.50
2022-10-14T08:20:55.612Z,15.70
2022-10-14T08:23:22.472Z,15.70
2022-10-14T08:25:49.871Z,15.90
2022-10-14T08:28:17.094Z,16.20
2022-10-14T08:30:43.919Z,16.40
2022-10-14T08:33:13.086Z,16.50
2022-10-14T08:35:40.096Z,16.40
2022-10-14T08:38:06.999Z,16.30
2022-10-14T08:40:43.468Z,16.60
2022-10-14T08:43:26.145Z,16.70
2022-10-14T08:45:55.468Z,16.80
2022-10-14T08:48:24.636Z,17.00
2022-10-14T08:50:58.795Z,17.10
2022-10-14T08:53:28.465Z,17.00
2022-10-14T08:55:57.076Z,16.50
2022-10-14T08:58:43.880Z,16.50
2022-10-14T09:01:13.737Z,16.70
2022-10-14T09:03:42.018Z,16.70
2022-10-14T09:06:15.112Z,16.80
2022-10-14T09:08:45.791Z,16.90
2022-10-14T09:11:20.211Z,17.10
2022-10-14T09:13:48.862Z,17.20
2022-10-14T09:16:17.887Z,17.10
2022-10-14T09:18:55.453Z,16.70
2022-10-14T09:21:40.644Z,16.50
2022-10-14T09:24:14.729Z,16.40
2022-10-14T09:26:42.993Z,16.70
2022-10-14T09:29:30.628Z,16.70
2022-10-14T09:31:59.116Z,17.00
2022-10-14T09:34:29.503Z,16.80
2022-10-14T09:36:57.575Z,16.90
2022-10-14T09:39:24.455Z,16.70
2022-10-14T09:41:53.356Z,16.70
2022-10-14T09:44:22.454Z,16.60
2022-10-14T09:46:51.059Z,16.60
2022-10-14T09:49:45.462Z,16.90
2022-10-14T09:52:25.999Z,17.10
2022-10-14T09:54:58.770Z,16.90
2022-10-14T09:57:25.994Z,16.60
2022-10-14T09:59:53.825Z,16.50
2022-10-14T10:02:22.700Z,16.60
2022-10-14T10:04:50.064Z,16.80
2022-10-14T10:07:23.057Z,17.10
2022-10-14T10:09:57.062Z,17.40
2022-10-14T10:12:25.419Z,17.60
2022-10-14T10:14:56.688Z,17.60
2022-10-14T10:17:23.843Z,17.50
2022-10-14T10:20:06.134Z,17.70
2022-10-14T10:22:38.961Z,18.40
2022-10-14T10:25:08.931Z,19.00
2022-10-14T10:27:36.403Z,19.00
2022-10-14T10:30:22.081Z,18.70
2022-10-14T10:32:48.999Z,18.80
2022-10-14T10:35:18.765Z,18.40
2022-10-14T10:38:10.030Z,18.40
2022-10-14T10:40:39.996Z,18.50
2022-10-14T10:43:22.022Z,18.70
2022-10-14T10:46:09.258Z,18.90
2022-10-14T10:48:42.157Z,19.10
2022-10-14T10:51:19.778Z,19.00
2022-10-14T10:54:07.645Z,18.80
2022-10-14T10:56:56.153Z,19.20
2022-10-14T10:59:36.427Z,19.40
2022-10-14T11:02:12.392Z,19.50
2022-10-14T11:04:46.727Z,19.60
2022-10-14T11:07:51.149Z,18.70
2022-10-14T11:10:43.002Z,18.20
2022-10-14T11:13:29.308Z,17.80
2022-10-14T11:16:12.306Z,17.40
2022-10-14T11:18:48.257Z,17.60
2022-10-14T11:21:29.773Z,17.90
2022-10-14T11:24:00.131Z,18.10
2022-10-14T11:26:36.697Z,18.00
2022-10-14T11:29:06.610Z,17.90
2022-10-14T11:31:33.445Z,18.00
2022-10-14T11:34:08.300Z,18.00
2022-10-14T11:36:37.915Z,17.90
2022-10-14T11:39:33.353Z,17.80
2022-10-14T11:42:05.747Z,17.80
2022-10-14T11:47:05.800Z,17.30
2022-10-14T11:50:08.182Z,17.00
2022-10-14T11:52:45.549Z,17.20
2022-10-14T11:55:16.205Z,17.40
2022-10-14T11:57:52.115Z,17.60
2022-10-14T12:00:22.166Z,17.70
2022-10-14T12:03:03.821Z,17.60
2022-10-14T12:05:43.502Z,17.60
2022-10-14T12:08:21.103Z,17.40
2022-10-14T12:10:52.294Z,17.30
2022-10-14T12:13:21.928Z,16.90
2022-10-14T12:15:52.371Z,16.80
2022-10-14T12:18:22.873Z,16.80
2022-10-14T12:20:57.434Z,16.70
2022-10-14T12:23:24.418Z,16.50
2022-10-14T12:26:11.457Z,16.20
2022-10-14T12:28:38.424Z,16.10
2022-10-14T12:31:23.986Z,16.10
2022-10-14T12:34:09.679Z,16.30
2022-10-14T12:36:37.418Z,16.40
2022-10-14T12:39:19.503Z,16.80
2022-10-14T12:41:58.465Z,16.90
2022-10-14T12:44:36.267Z,17.00
2022-10-14T12:47:04.160Z,17.10
2022-10-14T12:49:34.920Z,17.10
2022-10-14T12:52:06.381Z,17.20
2022-10-14T12:54:34.769Z,17.30
2022-10-14T12:57:21.323Z,17.20
2022-10-14T12:59:52.122Z,17.40
2022-10-14T13:02:25.122Z,17.90
2022-10-14T13:04:53.675Z,18.00
2022-10-14T13:07:42.414Z,18.00
2022-10-14T13:10:27.911Z,18.50
2022-10-14T13:12:54.913Z,19.00
2022-10-14T13:15:40.680Z,19.30
2022-10-14T13:18:27.305Z,19.40
2022-10-14T13:20:54.480Z,18.90
2022-10-14T13:23:30.470Z,18.60
2022-10-14T13:26:20.148Z,18.60
2022-10-14T13:28:56.709Z,19.00
2022-10-14T13:31:26.831Z,19.40
2022-10-14T13:34:12.772Z,19.80
2022-10-14T13:37:05.546Z,19.30
2022-10-14T13:39:33.899Z,18.50
2022-10-14T13:42:02.029Z,18.50
2022-10-14T13:44:28.995Z,18.50
2022-10-14T13:46:56.367Z,18.10
2022-10-14T13:49:27.583Z,18.00
2022-10-14T13:51:59.958Z,17.80
2022-10-14T13:54:27.813Z,17.70
2022-10-14T13:57:12.643Z,17.80
2022-10-14T14:00:09.080Z,17.90
2022-10-14T14:02:39.670Z,17.40
2022-10-14T14:05:07.140Z,17.40
2022-10-14T14:08:22.176Z,17.80
2022-10-14T14:10:24.425Z,18.00
2022-10-14T14:12:52.309Z,17.90
2022-10-14T14:15:26.585Z,18.20
2022-10-14T14:17:53.563Z,18.50
2022-10-14T14:20:24.831Z,18.70
2022-10-14T14:22:53.488Z,18.50
2022-10-14T14:25:38.394Z,18.60
2022-10-14T14:28:13.280Z,18.50
2022-10-14T14:30:50.573Z,18.80
2022-10-14T14:33:46.789Z,18.70
2022-10-14T14:36:27.486Z,18.60
2022-10-14T14:38:57.731Z,18.30
2022-10-14T14:41:28.775Z,18.00
2022-10-14T14:46:52.492Z,17.50
2022-10-14T14:49:25.431Z,17.30
2022-10-14T14:51:52.599Z,17.20
2022-10-14T14:54:20.887Z,17.00
2022-10-14T14:57:08.027Z,16.80
2022-10-14T14:59:37.928Z,16.70
2022-10-14T15:02:12.354Z,16.60
2022-10-14T15:04:41.234Z,16.60
2022-10-14T15:07:12.015Z,16.50
2022-10-14T15:09:40.283Z,16.50
2022-10-14T15:12:12.715Z,16.40
2022-10-14T15:14:42.583Z,16.40
2022-10-14T15:17:27.864Z,16.40
2022-10-14T15:19:59.744Z,16.30
2022-10-14T15:22:34.434Z,16.30
2022-10-14T15:25:06.072Z,16.10
2022-10-14T15:27:34.743Z,16.10
2022-10-14T15:30:19.510Z,15.90
2022-10-14T15:32:47.302Z,15.70
2022-10-14T15:35:15.774Z,15.60
2022-10-14T15:37:43.129Z,15.50
2022-10-14T15:40:18.732Z,15.50
2022-10-14T15:42:49.842Z,15.40
2022-10-14T15:45:17.326Z,15.40
2022-10-14T15:47:44.943Z,15.30
2022-10-14T15:50:22.068Z,15.40
2022-10-14T15:52:56.950Z,15.40
2022-10-14T15:55:30.063Z,15.40
2022-10-14T15:57:57.284Z,15.40
2022-10-14T16:00:26.093Z,15.40
2022-10-14T16:02:57.216Z,15.20
2022-10-14T16:05:29.174Z,15.30
2022-10-14T16:07:57.092Z,15.20
2022-10-14T16:10:28.225Z,15.20
2022-10-14T16:12:58.856Z,15.30
2022-10-14T16:15:36.126Z,15.10
2022-10-14T16:18:03.395Z,15.10
2022-10-14T16:20:30.869Z,15.00
2022-10-14T16:22:58.442Z,15.00
2022-10-14T16:25:31.734Z,14.90
2022-10-14T16:27:58.649Z,14.80
2022-10-14T16:30:28.095Z,14.80
2022-10-14T16:32:55.077Z,14.80
2022-10-14T16:35:21.979Z,14.70
2022-10-14T16:37:49.109Z,14.80
2022-10-14T16:40:15.941Z,14.80
2022-10-14T16:42:42.815Z,14.70
2022-10-14T16:45:10.223Z,14.70
2022-10-14T16:47:38.118Z,14.70
2022-10-14T16:50:05.313Z,14.70
2022-10-14T16:52:52.872Z,14.80
2022-10-14T16:55:20.549Z,14.80
2022-10-14T16:57:48.238Z,14.80
2022-10-14T17:00:16.129Z,14.80
2022-10-14T17:02:43.300Z,14.80
2022-10-14T17:05:11.112Z,15.00
2022-10-14T17:07:38.262Z,15.00
2022-10-14T17:10:05.708Z,14.80
2022-10-14T17:12:33.654Z,14.80
2022-10-14T17:15:00.739Z,14.90
2022-10-14T17:17:27.632Z,14.90
2022-10-14T17:19:54.911Z,14.90
2022-10-14T17:22:22.330Z,14.90
2022-10-14T17:24:50.284Z,14.90
2022-10-14T17:27:22.392Z,14.80
2022-10-14T17:29:49.421Z,14.90
2022-10-14T17:32:16.945Z,14.90
2022-10-14T17:34:44.245Z,14.90
2022-10-14T17:37:11.261Z,14.80
2022-10-14T17:39:38.557Z,14.80
2022-10-14T17:42:05.473Z,14.80
2022-10-14T17:44:33.253Z,14.80
2022-10-14T17:47:02.004Z,14.80
2022-10-14T17:49:31.301Z,14.80
2022-10-14T17:52:02.351Z,14.70
2022-10-14T17:54:32.250Z,14.70
2022-10-14T17:56:59.146Z,14.60
2022-10-14T17:59:26.055Z,14.60
2022-10-14T18:02:08.321Z,14.60
2022-10-14T18:04:35.598Z,14.60
2022-10-14T18:07:02.637Z,14.50
2022-10-14T18:09:29.531Z,14.50
2022-10-14T18:12:13.074Z,14.60
2022-10-14T18:14:40.821Z,14.70
2022-10-14T18:17:11.053Z,14.70
2022-10-14T18:19:40.864Z,14.60
2022-10-14T18:22:08.225Z,14.60
2022-10-14T18:24:38.428Z,14.50
2022-10-14T18:27:05.662Z,14.50
2022-10-14T18:29:32.509Z,14.50
2022-10-14T18:31:59.363Z,14.50
2022-10-14T18:34:27.475Z,14.50
2022-10-14T18:36:54.490Z,14.60
2022-10-14T18:39:21.668Z,14.60
2022-10-14T18:41:48.680Z,14.70
2022-10-14T18:44:15.713Z,14.70
2022-10-14T18:46:42.811Z,14.70
2022-10-14T18:49:11.769Z,14.70
2022-10-14T18:51:40.334Z,14.50
2022-10-14T18:54:13.499Z,14.40
2022-10-14T18:56:40.795Z,14.40
2022-10-14T18:59:09.317Z,14.30
2022-10-14T19:01:37.335Z,14.20
2022-10-14T19:04:05.600Z,14.10
2022-10-14T19:06:33.009Z,14.10
2022-10-14T19:09:02.867Z,14.00
2022-10-14T19:11:30.350Z,13.90
2022-10-14T19:13:58.199Z,13.80
2022-10-14T19:16:25.071Z,13.80
2022-10-14T19:18:53.635Z,13.70
2022-10-14T19:21:22.432Z,13.70
2022-10-14T19:23:50.149Z,13.70
2022-10-14T19:26:22.173Z,13.70
2022-10-14T19:28:52.050Z,13.80
2022-10-14T19:31:28.007Z,13.60
2022-10-14T19:33:56.303Z,13.60
2022-10-14T19:36:25.636Z,13.60
2022-10-14T19:38:57.896Z,13.70
2022-10-14T19:41:40.193Z,13.70
2022-10-14T19:44:07.449Z,13.60
2022-10-14T19:46:34.326Z,13.70
2022-10-14T19:49:03.407Z,13.60
2022-10-14T19:51:34.569Z,13.50
2022-10-14T19:54:01.898Z,13.50
2022-10-14T19:56:29.412Z,13.60
2022-10-14T19:58:58.313Z,13.60
2022-10-14T20:01:27.367Z,13.60
2022-10-14T20:03:55.373Z,13.60
2022-10-14T20:06:23.878Z,13.60
2022-10-14T20:08:51.395Z,13.60
2022-10-14T20:11:22.168Z,13.70
2022-10-14T20:13:49.314Z,13.70
2022-10-14T20:16:17.093Z,13.80
2022-10-14T20:18:44.156Z,13.70
2022-10-14T20:21:14.087Z,13.70
2022-10-14T20:23:41.920Z,13.90
2022-10-14T20:26:12.702Z,13.80
2022-10-14T20:28:40.402Z,13.70
2022-10-14T20:31:13.774Z,13.70
2022-10-14T20:33:40.998Z,13.80
2022-10-14T20:36:15.256Z,13.80
2022-10-14T20:38:43.149Z,13.80
2022-10-14T20:41:23.319Z,13.70
2022-10-14T20:43:51.094Z,13.80
2022-10-14T20:46:18.424Z,13.90
2022-10-14T20:48:45.627Z,13.90
2022-10-14T20:51:15.758Z,13.80
2022-10-14T20:53:42.996Z,13.80
2022-10-14T20:56:12.752Z,13.90
2022-10-14T20:58:39.975Z,13.80
2022-10-14T21:01:15.194Z,13.90
2022-10-14T21:03:44.655Z,13.80
2022-10-14T21:06:18.110Z,13.80
2022-10-14T21:08:48.774Z,13.80
2022-10-14T21:11:16.422Z,13.80
2022-10-14T21:13:45.488Z,13.80
2022-10-14T21:16:24.518Z,13.90
2022-10-14T21:19:00.442Z,14.00
2022-10-14T21:21:31.364Z,15.60
2022-10-14T21:23:59.655Z,13.90
2022-10-14T21:26:27.161Z,13.90
2022-10-14T21:28:54.362Z,13.80
2022-10-14T21:31:21.804Z,13.80
2022-10-14T21:33:55.751Z,13.80
2022-10-14T21:36:23.439Z,13.80
2022-10-14T21:38:50.752Z,13.80
2022-10-14T21:41:18.155Z,13.80
2022-10-14T21:43:48.172Z,13.80
2022-10-14T21:46:16.554Z,13.80
2022-10-14T21:48:44.925Z,13.90
2022-10-14T21:51:17.447Z,13.90
2022-10-14T21:53:45.903Z,13.70
2022-10-14T21:56:14.472Z,13.80
2022-10-14T21:58:41.812Z,13.90
2022-10-14T22:01:14.799Z,13.90
2022-10-14T22:03:42.467Z,13.90
2022-10-14T22:06:15.353Z,13.90
2022-10-14T22:08:45.248Z,13.80
2022-10-14T22:11:20.065Z,13.70
2022-10-14T22:13:47.718Z,13.80
2022-10-14T22:16:18.923Z,13.80
2022-10-14T22:18:47.179Z,13.80
2022-10-14T22:21:15.799Z,13.70
2022-10-14T22:23:43.430Z,13.70
2022-10-14T22:26:13.470Z,13.70
2022-10-14T22:28:40.671Z,13.80
2022-10-14T22:31:13.838Z,13.70
2022-10-14T22:33:41.555Z,13.70
2022-10-14T22:36:19.334Z,13.80
2022-10-14T22:38:50.508Z,13.70
2022-10-14T22:41:19.223Z,13.80
2022-10-14T22:43:48.184Z,13.70
2022-10-14T22:46:20.096Z,13.80
2022-10-14T22:48:48.410Z,13.70
2022-10-14T22:51:18.447Z,13.70
2022-10-14T22:53:46.703Z,13.70
2022-10-14T22:56:15.980Z,13.70
2022-10-14T22:58:42.942Z,13.80
2022-10-14T23:01:13.520Z,13.60
2022-10-14T23:03:41.482Z,13.70
2022-10-14T23:06:11.795Z,13.70
2022-10-14T23:08:39.503Z,13.80
2022-10-14T23:11:07.632Z,13.60
2022-10-14T23:13:34.997Z,13.70
2022-10-14T23:16:07.269Z,13.70
2022-10-14T23:18:37.527Z,13.80
2022-10-14T23:21:29.303Z,13.70
2022-10-14T23:23:58.843Z,13.80
2022-10-14T23:26:28.535Z,13.80
2022-10-14T23:28:57.697Z,13.80
2022-10-14T23:31:27.443Z,13.60
2022-10-14T23:33:54.900Z,13.70
2022-10-14T23:36:22.470Z,13.80
2022-10-14T23:38:51.512Z,13.70
2022-10-14T23:41:22.333Z,13.70
2022-10-14T23:43:50.572Z,13.70
2022-10-14T23:46:18.318Z,13.80
2022-10-14T23:48:51.521Z,13.80
2022-10-14T23:51:28.255Z,13.70
2022-10-14T23:53:55.223Z,13.80
2022-10-14T23:56:22.238Z,13.80
2022-10-14T23:58:49.150Z,13.80
